createdAt,value
2022-07-27T00:00:25.578Z,-140.65
2022-07-27T00:01:25.578Z,-140.65
2022-07-27T00:02:25.524Z,-140.65
2022-07-27T00:03:25.516Z,-139.43
2022-07-27T00:04:25.598Z,-139.43
2022-07-27T00:05:28.485Z,-139.43
2022-07-27T00:06:28.517Z,-139.43
2022-07-27T00:07:25.459Z,-139.43
2022-07-27T00:08:25.438Z,-139.43
2022-07-27T00:09:25.439Z,-139.43
2022-07-27T00:10:25.410Z,-139.43
2022-07-27T00:11:25.400Z,-139.43
2022-07-27T00:12:25.410Z,-138.21
2022-07-27T00:13:25.389Z,-138.21
2022-07-27T00:14:25.361Z,-138.21
2022-07-27T00:15:25.351Z,-138.21
2022-07-27T00:16:25.415Z,-138.21
2022-07-27T00:17:25.343Z,-138.21
2022-07-27T00:18:25.310Z,-138.21
2022-07-27T00:19:25.295Z,-138.21
2022-07-27T00:20:27.114Z,-138.21
2022-07-27T00:21:25.263Z,-138.21
2022-07-27T00:22:25.293Z,-136.99
2022-07-27T00:23:25.236Z,-136.99
2022-07-27T00:24:25.225Z,-136.99
2022-07-27T00:25:28.220Z,-136.99
2022-07-27T00:26:28.204Z,-136.99
2022-07-27T00:27:25.186Z,-136.99
2022-07-27T00:28:25.201Z,-136.99
2022-07-27T00:29:25.156Z,-136.99
2022-07-27T00:30:25.145Z,-136.99
2022-07-27T00:31:25.205Z,-136.99
2022-07-27T00:32:25.117Z,-136.99
2022-07-27T00:33:25.150Z,-136.99
2022-07-27T00:34:25.087Z,-136.99
2022-07-27T00:35:25.077Z,-136.99
2022-07-27T00:36:25.070Z,-135.77
2022-07-27T00:37:25.049Z,-135.77
2022-07-27T00:38:25.060Z,-135.77
2022-07-27T00:39:25.035Z,-135.77
2022-07-27T00:40:25.009Z,-135.77
2022-07-27T00:41:24.997Z,-135.77
2022-07-27T00:42:24.979Z,-135.77
2022-07-27T00:43:24.971Z,-135.77
2022-07-27T00:44:24.981Z,-135.77
2022-07-27T00:45:27.943Z,-135.77
2022-07-27T00:46:28.040Z,-135.77
2022-07-27T00:47:24.913Z,-135.77
2022-07-27T00:48:26.496Z,-135.77
2022-07-27T00:49:24.983Z,-135.77
2022-07-27T00:50:24.872Z,-135.77
2022-07-27T00:51:24.862Z,-135.77
2022-07-27T00:52:24.844Z,-135.77
2022-07-27T00:53:24.854Z,-135.77
2022-07-27T00:54:24.844Z,-134.56
2022-07-27T00:55:24.805Z,-134.56
2022-07-27T00:56:24.798Z,-134.56
2022-07-27T00:57:24.775Z,-134.56
2022-07-27T00:58:24.766Z,-134.56
2022-07-27T00:59:24.787Z,-134.56
2022-07-27T01:00:24.766Z,-134.56
2022-07-27T01:01:24.786Z,-134.56
2022-07-27T01:02:24.792Z,-134.56
2022-07-27T01:03:29.686Z,-134.56
2022-07-27T01:04:25.708Z,-134.56
2022-07-27T01:05:36.417Z,-134.56
2022-07-27T01:06:28.689Z,-134.56
2022-07-27T01:07:24.640Z,-134.56
2022-07-27T01:08:24.628Z,-134.56
2022-07-27T01:09:24.641Z,-134.56
2022-07-27T01:10:24.598Z,-134.56
2022-07-27T01:11:24.621Z,-134.56
2022-07-27T01:12:24.571Z,-134.56
2022-07-27T01:13:24.559Z,-133.34
2022-07-27T01:14:28.593Z,-133.34
2022-07-27T01:15:24.531Z,-133.34
2022-07-27T01:16:24.614Z,-133.34
2022-07-27T01:17:24.506Z,-133.34
2022-07-27T01:18:24.511Z,-133.34
2022-07-27T01:19:24.472Z,-133.34
2022-07-27T01:20:24.484Z,-133.34
2022-07-27T01:21:24.495Z,-133.34
2022-07-27T01:22:25.434Z,-133.34
2022-07-27T01:23:24.444Z,-133.34
2022-07-27T01:24:24.404Z,-133.34
2022-07-27T01:25:27.384Z,-133.34
2022-07-27T01:26:27.442Z,-133.34
2022-07-27T01:27:24.367Z,-133.34
2022-07-27T01:28:24.348Z,-133.34
2022-07-27T01:29:24.327Z,-133.34
2022-07-27T01:30:24.324Z,-133.34
2022-07-27T01:31:24.394Z,-133.34
2022-07-27T01:32:24.347Z,-133.34
2022-07-27T01:33:24.276Z,-133.34
2022-07-27T01:34:24.278Z,-133.34
2022-07-27T01:35:24.248Z,-133.34
2022-07-27T01:36:24.228Z,-133.34
2022-07-27T01:37:24.221Z,-133.34
2022-07-27T01:38:24.233Z,-133.34
2022-07-27T01:39:24.189Z,-133.34
2022-07-27T01:40:24.179Z,-133.34
2022-07-27T01:41:24.159Z,-133.34
2022-07-27T01:42:24.150Z,-133.34
2022-07-27T01:43:24.168Z,-133.34
2022-07-27T01:44:24.123Z,-133.34
2022-07-27T01:45:27.102Z,-133.34
2022-07-27T01:46:27.169Z,-133.34
2022-07-27T01:47:24.073Z,-133.34
2022-07-27T01:48:24.091Z,-133.34
2022-07-27T01:49:24.107Z,-134.56
2022-07-27T01:50:24.033Z,-134.56
2022-07-27T01:51:24.015Z,-134.56
2022-07-27T01:52:24.005Z,-134.56
2022-07-27T01:53:24.024Z,-134.56
2022-07-27T01:54:23.979Z,-134.56
2022-07-27T01:55:23.965Z,-135.77
2022-07-27T01:56:23.976Z,-135.77
2022-07-27T01:57:23.937Z,-135.77
2022-07-27T01:58:23.956Z,-135.77
2022-07-27T01:59:23.907Z,-135.77
2022-07-27T02:00:23.905Z,-135.77
2022-07-27T02:01:23.967Z,-135.77
2022-07-27T02:02:23.868Z,-135.77
2022-07-27T02:03:23.898Z,-135.77
2022-07-27T02:04:23.847Z,-135.77
2022-07-27T02:05:26.851Z,-135.77
2022-07-27T02:06:26.828Z,-135.77
2022-07-27T02:07:23.798Z,-135.77
2022-07-27T02:08:23.797Z,-135.77
2022-07-27T02:09:23.959Z,-135.77
2022-07-27T02:10:23.771Z,-135.77
2022-07-27T02:11:23.739Z,-135.77
2022-07-27T02:12:23.736Z,-135.77
2022-07-27T02:13:23.710Z,-135.77
2022-07-27T02:14:23.709Z,-135.77
2022-07-27T02:15:25.190Z,-136.99
2022-07-27T02:16:24.489Z,-136.99
2022-07-27T02:17:23.660Z,-136.99
2022-07-27T02:18:32.682Z,-136.99
2022-07-27T02:19:24.642Z,-136.99
2022-07-27T02:20:23.662Z,-138.21
2022-07-27T02:21:23.613Z,-138.21
2022-07-27T02:22:23.593Z,-138.21
2022-07-27T02:23:23.582Z,-138.21
2022-07-27T02:24:23.577Z,-138.21
2022-07-27T02:25:26.577Z,-138.21
2022-07-27T02:26:26.557Z,-138.21
2022-07-27T02:27:23.525Z,-138.21
2022-07-27T02:28:23.521Z,-138.21
2022-07-27T02:29:23.502Z,-138.21
2022-07-27T02:30:23.516Z,-138.21
2022-07-27T02:31:23.503Z,-138.21
2022-07-27T02:32:23.538Z,-138.21
2022-07-27T02:33:23.543Z,-138.21
2022-07-27T02:34:23.478Z,-138.21
2022-07-27T02:35:23.416Z,-138.21
2022-07-27T02:36:23.408Z,-138.21
2022-07-27T02:37:23.407Z,-138.21
2022-07-27T02:38:23.408Z,-138.21
2022-07-27T02:39:23.368Z,-138.21
2022-07-27T02:40:23.370Z,-138.21
2022-07-27T02:41:23.330Z,-138.21
2022-07-27T02:42:23.331Z,-138.21
2022-07-27T02:43:23.335Z,-138.21
2022-07-27T02:44:23.300Z,-136.99
2022-07-27T02:45:26.320Z,-136.99
2022-07-27T02:46:26.338Z,-136.99
2022-07-27T02:47:23.270Z,-136.99
2022-07-27T02:48:23.250Z,-136.99
2022-07-27T02:49:23.264Z,-136.99
2022-07-27T02:50:23.224Z,-136.99
2022-07-27T02:51:23.229Z,-136.99
2022-07-27T02:52:23.184Z,-136.99
2022-07-27T02:53:23.182Z,-136.99
2022-07-27T02:54:23.163Z,-135.77
2022-07-27T02:55:23.145Z,-135.77
2022-07-27T02:56:26.872Z,-135.77
2022-07-27T02:57:23.123Z,-135.77
2022-07-27T02:58:23.107Z,-135.77
2022-07-27T02:59:23.096Z,-135.77
2022-07-27T03:00:23.085Z,-135.77
2022-07-27T03:01:23.096Z,-135.77
2022-07-27T03:02:23.106Z,-135.77
2022-07-27T03:03:23.037Z,-135.77
2022-07-27T03:04:24.085Z,-135.77
2022-07-27T03:05:26.012Z,-135.77
2022-07-27T03:06:26.015Z,-135.77
2022-07-27T03:07:23.003Z,-135.77
2022-07-27T03:08:23.027Z,-135.77
2022-07-27T03:09:29.009Z,-135.77
2022-07-27T03:10:23.949Z,-135.77
2022-07-27T03:11:22.929Z,-135.77
2022-07-27T03:12:22.926Z,-135.77
2022-07-27T03:13:22.901Z,-135.77
2022-07-27T03:14:22.940Z,-135.77
2022-07-27T03:15:22.870Z,-134.56
2022-07-27T03:16:22.920Z,-134.56
2022-07-27T03:17:22.862Z,-134.56
2022-07-27T03:18:22.834Z,-134.56
2022-07-27T03:19:26.945Z,-134.56
2022-07-27T03:20:23.882Z,-134.56
2022-07-27T03:21:22.794Z,-134.56
2022-07-27T03:22:22.787Z,-134.56
2022-07-27T03:23:22.788Z,-134.56
2022-07-27T03:24:22.755Z,-134.56
2022-07-27T03:25:25.763Z,-134.56
2022-07-27T03:26:25.779Z,-134.56
2022-07-27T03:27:22.714Z,-134.56
2022-07-27T03:28:22.717Z,-134.56
2022-07-27T03:29:22.684Z,-135.77
2022-07-27T03:30:22.677Z,-135.77
2022-07-27T03:31:22.770Z,-135.77
2022-07-27T03:32:22.649Z,-135.77
2022-07-27T03:33:22.635Z,-135.77
2022-07-27T03:34:22.625Z,-135.77
2022-07-27T03:35:22.610Z,-135.77
2022-07-27T03:36:22.598Z,-135.77
2022-07-27T03:37:22.652Z,-135.77
2022-07-27T03:38:22.565Z,-135.77
2022-07-27T03:39:22.547Z,-135.77
2022-07-27T03:40:22.548Z,-135.77
2022-07-27T03:41:22.531Z,-135.77
2022-07-27T03:42:22.659Z,-135.77
2022-07-27T03:43:22.490Z,-135.77
2022-07-27T03:44:22.479Z,-135.77
2022-07-27T03:45:25.462Z,-135.77
2022-07-27T03:46:25.554Z,-135.77
2022-07-27T03:47:22.442Z,-135.77
2022-07-27T03:48:22.454Z,-135.77
2022-07-27T03:49:22.483Z,-135.77
2022-07-27T03:50:22.406Z,-135.77
2022-07-27T03:51:22.388Z,-136.99
2022-07-27T03:52:22.373Z,-136.99
2022-07-27T03:53:22.383Z,-136.99
2022-07-27T03:54:22.343Z,-136.99
2022-07-27T03:55:22.325Z,-136.99
2022-07-27T03:56:22.366Z,-136.99
2022-07-27T03:57:22.307Z,-136.99
2022-07-27T03:58:22.287Z,-136.99
2022-07-27T03:59:22.273Z,-136.99
2022-07-27T04:00:22.272Z,-136.99
2022-07-27T04:01:22.275Z,-136.99
2022-07-27T04:02:22.320Z,-136.99
2022-07-27T04:03:22.217Z,-136.99
2022-07-27T04:04:22.212Z,-136.99
2022-07-27T04:05:25.237Z,-136.99
2022-07-27T04:06:25.192Z,-136.99
2022-07-27T04:07:22.158Z,-136.99
2022-07-27T04:08:22.150Z,-136.99
2022-07-27T04:09:22.129Z,-136.99
2022-07-27T04:10:22.126Z,-136.99
2022-07-27T04:11:22.271Z,-136.99
2022-07-27T04:12:22.091Z,-136.99
2022-07-27T04:13:22.080Z,-136.99
2022-07-27T04:14:22.070Z,-136.99
2022-07-27T04:15:22.060Z,-136.99
2022-07-27T04:16:22.080Z,-138.21
2022-07-27T04:17:55.266Z,-138.21
2022-07-27T04:18:23.031Z,-138.21
2022-07-27T04:19:21.995Z,-138.21
2022-07-27T04:20:21.992Z,-138.21
2022-07-27T04:21:21.964Z,-138.21
2022-07-27T04:22:21.955Z,-138.21
2022-07-27T04:23:21.964Z,-138.21
2022-07-27T04:24:21.963Z,-138.21
2022-07-27T04:25:24.947Z,-138.21
2022-07-27T04:26:24.924Z,-138.21
2022-07-27T04:27:21.885Z,-138.21
2022-07-27T04:28:21.878Z,-138.21
2022-07-27T04:29:22.442Z,-138.21
2022-07-27T04:30:21.901Z,-138.21
2022-07-27T04:31:21.947Z,-138.21
2022-07-27T04:32:21.824Z,-138.21
2022-07-27T04:33:21.804Z,-138.21
2022-07-27T04:34:21.797Z,-138.21
2022-07-27T04:35:26.382Z,-139.43
2022-07-27T04:36:22.776Z,-138.21
2022-07-27T04:37:21.752Z,-139.43
2022-07-27T04:38:21.751Z,-139.43
2022-07-27T04:39:21.729Z,-139.43
2022-07-27T04:40:21.741Z,-139.43
2022-07-27T04:41:21.698Z,-139.43
2022-07-27T04:42:21.680Z,-139.43
2022-07-27T04:43:21.702Z,-139.43
2022-07-27T04:44:21.669Z,-139.43
2022-07-27T04:45:24.651Z,-139.43
2022-07-27T04:46:24.748Z,-139.43
2022-07-27T04:47:21.623Z,-139.43
2022-07-27T04:48:21.667Z,-139.43
2022-07-27T04:49:21.665Z,-139.43
2022-07-27T04:50:21.571Z,-139.43
2022-07-27T04:51:21.564Z,-139.43
2022-07-27T04:52:26.603Z,-140.65
2022-07-27T04:53:22.598Z,-140.65
2022-07-27T04:54:21.524Z,-140.65
2022-07-27T04:55:21.516Z,-140.65
2022-07-27T04:56:21.503Z,-141.87
2022-07-27T04:57:21.492Z,-141.87
2022-07-27T04:58:21.476Z,-141.87
2022-07-27T04:59:21.486Z,-143.08
2022-07-27T05:00:21.473Z,-143.08
2022-07-27T05:01:21.471Z,-143.08
2022-07-27T05:02:21.431Z,-144.30
2022-07-27T05:03:21.397Z,-144.30
2022-07-27T05:04:21.432Z,-145.52
2022-07-27T05:05:24.398Z,-146.74
2022-07-27T05:06:24.443Z,-150.39
2022-07-27T05:07:21.347Z,-154.04
2022-07-27T05:08:21.338Z,-156.48
2022-07-27T05:09:22.605Z,-158.91
2022-07-27T05:10:21.309Z,-158.91
2022-07-27T05:11:21.296Z,-160.13
2022-07-27T05:12:21.460Z,-161.35
2022-07-27T05:13:21.268Z,-160.13
2022-07-27T05:14:21.890Z,-157.70
2022-07-27T05:15:21.244Z,-156.48
2022-07-27T05:16:23.859Z,-156.48
2022-07-27T05:17:22.244Z,-156.48
2022-07-27T05:18:21.203Z,-157.70
2022-07-27T05:19:21.183Z,-160.13
2022-07-27T05:20:21.183Z,-161.35
2022-07-27T05:21:21.164Z,-162.57
2022-07-27T05:22:21.213Z,-162.57
2022-07-27T05:23:21.136Z,-163.78
2022-07-27T05:24:21.123Z,-165.00
2022-07-27T05:25:24.108Z,-165.00
2022-07-27T05:26:24.114Z,-166.22
2022-07-27T05:27:21.076Z,-166.22
2022-07-27T05:28:21.123Z,-166.22
2022-07-27T05:29:21.047Z,-167.44
2022-07-27T05:30:21.045Z,-167.44
2022-07-27T05:31:21.091Z,-167.44
2022-07-27T05:32:21.010Z,-167.44
2022-07-27T05:33:21.199Z,-167.44
2022-07-27T05:34:20.989Z,-167.44
2022-07-27T05:35:20.969Z,-167.44
2022-07-27T05:36:20.961Z,-167.44
2022-07-27T05:37:20.939Z,-167.44
2022-07-27T05:38:20.932Z,-167.44
2022-07-27T05:39:21.693Z,-167.44
2022-07-27T05:40:20.899Z,-167.44
2022-07-27T05:41:20.882Z,-167.44
2022-07-27T05:42:20.872Z,-167.44
2022-07-27T05:43:20.860Z,-167.44
2022-07-27T05:44:20.843Z,-167.44
2022-07-27T05:45:23.939Z,-167.44
2022-07-27T05:46:24.730Z,-167.44
2022-07-27T05:47:20.805Z,-167.44
2022-07-27T05:48:20.785Z,-167.44
2022-07-27T05:49:20.869Z,-167.44
2022-07-27T05:50:20.767Z,-167.44
2022-07-27T05:51:20.777Z,-167.44
2022-07-27T05:52:20.738Z,-167.44
2022-07-27T05:53:20.726Z,-167.44
2022-07-27T05:54:20.708Z,-167.44
2022-07-27T05:55:20.729Z,-167.44
2022-07-27T05:56:20.678Z,-167.44
2022-07-27T05:57:20.669Z,-166.22
2022-07-27T05:58:20.661Z,-166.22
2022-07-27T05:59:20.640Z,-165.00
2022-07-27T06:00:20.647Z,-165.00
2022-07-27T06:01:20.731Z,-163.78
2022-07-27T06:02:20.592Z,-162.57
2022-07-27T06:03:20.610Z,-161.35
2022-07-27T06:04:20.577Z,-160.13
2022-07-27T06:05:23.620Z,-158.91
2022-07-27T06:06:23.623Z,-157.70
2022-07-27T06:07:20.545Z,-156.48
2022-07-27T06:08:20.526Z,-155.26
2022-07-27T06:09:20.504Z,-154.04
2022-07-27T06:10:20.495Z,-152.83
2022-07-27T06:11:20.475Z,-152.83
2022-07-27T06:12:20.496Z,-152.83
2022-07-27T06:13:21.727Z,-151.61
2022-07-27T06:14:20.434Z,-150.39
2022-07-27T06:15:20.428Z,-151.61
2022-07-27T06:16:20.459Z,-150.39
2022-07-27T06:17:20.408Z,-150.39
2022-07-27T06:18:20.429Z,-150.39
2022-07-27T06:19:20.371Z,-149.17
2022-07-27T06:20:20.361Z,-149.17
2022-07-27T06:21:20.342Z,-149.17
2022-07-27T06:22:20.320Z,-149.17
2022-07-27T06:23:20.310Z,-149.17
2022-07-27T06:24:20.386Z,-149.17
2022-07-27T06:25:23.292Z,-149.17
2022-07-27T06:26:24.365Z,-147.96
2022-07-27T06:27:20.272Z,-147.96
2022-07-27T06:28:20.259Z,-147.96
2022-07-27T06:29:20.235Z,-147.96
2022-07-27T06:30:20.223Z,-147.96
2022-07-27T06:31:20.315Z,-147.96
2022-07-27T06:32:20.268Z,-147.96
2022-07-27T06:33:20.186Z,-147.96
2022-07-27T06:34:20.167Z,-147.96
2022-07-27T06:35:20.168Z,-147.96
2022-07-27T06:36:20.146Z,-146.74
2022-07-27T06:37:20.145Z,-146.74
2022-07-27T06:38:20.137Z,-146.74
2022-07-27T06:39:20.098Z,-147.96
2022-07-27T06:40:20.102Z,-147.96
2022-07-27T06:41:20.128Z,-147.96
2022-07-27T06:42:20.060Z,-149.17
2022-07-27T06:43:20.050Z,-149.17
2022-07-27T06:44:20.039Z,-149.17
2022-07-27T06:45:23.025Z,-149.17
2022-07-27T06:46:23.137Z,-149.17
2022-07-27T06:47:20.014Z,-149.17
2022-07-27T06:48:19.980Z,-150.39
2022-07-27T06:49:20.039Z,-150.39
2022-07-27T06:50:19.978Z,-151.61
2022-07-27T06:51:19.943Z,-151.61
2022-07-27T06:52:19.953Z,-151.61
2022-07-27T06:53:21.454Z,-152.83
2022-07-27T06:54:19.903Z,-152.83
2022-07-27T06:55:19.885Z,-152.83
2022-07-27T06:56:19.913Z,-152.83
2022-07-27T06:57:19.874Z,-152.83
2022-07-27T06:58:19.844Z,-152.83
2022-07-27T06:59:19.832Z,-152.83
2022-07-27T07:00:19.819Z,-152.83
2022-07-27T07:01:19.845Z,-154.04
2022-07-27T07:02:19.829Z,-154.04
2022-07-27T07:03:19.835Z,-152.83
2022-07-27T07:04:23.972Z,-152.83
2022-07-27T07:05:23.748Z,-152.83
2022-07-27T07:06:22.749Z,-154.04
2022-07-27T07:07:19.737Z,-154.04
2022-07-27T07:08:19.769Z,-154.04
2022-07-27T07:09:19.714Z,-154.04
2022-07-27T07:10:19.689Z,-154.04
2022-07-27T07:11:19.675Z,-154.04
2022-07-27T07:12:19.652Z,-154.04
2022-07-27T07:13:19.652Z,-154.04
2022-07-27T07:14:19.652Z,-154.04
2022-07-27T07:15:19.623Z,-154.04
2022-07-27T07:16:19.688Z,-155.26
2022-07-27T07:17:19.857Z,-155.26
2022-07-27T07:18:19.663Z,-155.26
2022-07-27T07:19:19.563Z,-155.26
2022-07-27T07:20:19.567Z,-155.26
2022-07-27T07:21:19.548Z,-155.26
2022-07-27T07:22:19.526Z,-155.26
2022-07-27T07:23:19.525Z,-155.26
2022-07-27T07:24:19.545Z,-155.26
2022-07-27T07:25:22.493Z,-155.26
2022-07-27T07:26:22.496Z,-156.48
2022-07-27T07:27:19.468Z,-155.26
2022-07-27T07:28:19.450Z,-155.26
2022-07-27T07:29:19.447Z,-155.26
2022-07-27T07:30:19.489Z,-155.26
2022-07-27T07:31:19.418Z,-155.26
2022-07-27T07:32:19.398Z,-155.26
2022-07-27T07:33:19.380Z,-155.26
2022-07-27T07:34:19.364Z,-155.26
2022-07-27T07:35:19.352Z,-155.26
2022-07-27T07:36:19.400Z,-155.26
2022-07-27T07:37:19.341Z,-155.26
2022-07-27T07:38:19.312Z,-155.26
2022-07-27T07:39:19.303Z,-155.26
2022-07-27T07:40:41.870Z,-155.26
2022-07-27T07:41:20.296Z,-155.26
2022-07-27T07:42:19.263Z,-155.26
2022-07-27T07:43:19.244Z,-155.26
2022-07-27T07:44:19.236Z,-155.26
2022-07-27T07:45:22.213Z,-155.26
2022-07-27T07:46:22.308Z,-155.26
2022-07-27T07:47:19.208Z,-156.48
2022-07-27T07:48:19.175Z,-157.70
2022-07-27T07:49:21.475Z,-157.70
2022-07-27T07:50:20.158Z,-157.70
2022-07-27T07:51:19.136Z,-157.70
2022-07-27T07:52:19.137Z,-157.70
2022-07-27T07:53:19.107Z,-157.70
2022-07-27T07:54:19.087Z,-156.48
2022-07-27T07:55:19.078Z,-156.48
2022-07-27T07:56:19.100Z,-156.48
2022-07-27T07:57:19.098Z,-156.48
2022-07-27T07:58:19.032Z,-156.48
2022-07-27T07:59:19.029Z,-155.26
2022-07-27T08:00:19.002Z,-155.26
2022-07-27T08:01:19.076Z,-154.04
2022-07-27T08:02:19.074Z,-154.04
2022-07-27T08:03:19.184Z,-154.04
2022-07-27T08:04:18.953Z,-152.83
2022-07-27T08:05:21.952Z,-152.83
2022-07-27T08:06:21.984Z,-152.83
2022-07-27T08:07:18.914Z,-152.83
2022-07-27T08:08:19.057Z,-152.83
2022-07-27T08:09:18.895Z,-152.83
2022-07-27T08:10:18.875Z,-152.83
2022-07-27T08:11:18.863Z,-152.83
2022-07-27T08:12:18.849Z,-152.83
2022-07-27T08:13:22.153Z,-152.83
2022-07-27T08:14:18.847Z,-152.83
2022-07-27T08:15:18.817Z,-152.83
2022-07-27T08:16:18.899Z,-152.83
2022-07-27T08:17:18.799Z,-152.83
2022-07-27T08:18:18.799Z,-152.83
2022-07-27T08:19:18.767Z,-152.83
2022-07-27T08:20:18.749Z,-152.83
2022-07-27T08:21:18.758Z,-152.83
2022-07-27T08:22:18.727Z,-152.83
2022-07-27T08:23:18.746Z,-152.83
2022-07-27T08:24:18.770Z,-152.83
2022-07-27T08:25:21.681Z,-152.83
2022-07-27T08:26:21.716Z,-152.83
2022-07-27T08:27:18.663Z,-152.83
2022-07-27T08:28:18.640Z,-154.04
2022-07-27T08:29:19.055Z,-154.04
2022-07-27T08:30:18.627Z,-154.04
2022-07-27T08:31:24.577Z,-152.83
2022-07-27T08:32:19.650Z,-152.83
2022-07-27T08:33:18.573Z,-154.04
2022-07-27T08:34:18.569Z,-154.04
2022-07-27T08:35:18.545Z,-154.04
2022-07-27T08:36:18.537Z,-154.04
2022-07-27T08:37:18.526Z,-154.04
2022-07-27T08:38:18.563Z,-154.04
2022-07-27T08:39:52.291Z,-154.04
2022-07-27T08:41:19.467Z,-154.04
2022-07-27T08:42:18.466Z,-155.26
2022-07-27T08:43:24.450Z,-155.26
2022-07-27T08:44:19.429Z,-155.26
2022-07-27T08:45:21.419Z,-155.26
2022-07-27T08:46:21.478Z,-155.26
2022-07-27T08:47:18.451Z,-155.26
2022-07-27T08:48:18.396Z,-156.48
2022-07-27T08:49:18.885Z,-157.70
2022-07-27T08:50:18.445Z,-158.91
2022-07-27T08:51:18.341Z,-158.91
2022-07-27T08:52:18.330Z,-158.91
2022-07-27T08:53:18.365Z,-158.91
2022-07-27T08:54:18.302Z,-157.70
2022-07-27T08:55:18.294Z,-157.70
2022-07-27T08:56:18.272Z,-157.70
2022-07-27T08:57:18.260Z,-157.70
2022-07-27T08:58:18.253Z,-157.70
2022-07-27T08:59:18.270Z,-157.70
2022-07-27T09:00:18.272Z,-157.70
2022-07-27T09:01:18.317Z,-157.70
2022-07-27T09:02:18.232Z,-157.70
2022-07-27T09:03:20.612Z,-157.70
2022-07-27T09:04:18.158Z,-157.70
2022-07-27T09:05:21.148Z,-157.70
2022-07-27T09:06:21.150Z,-157.70
2022-07-27T09:07:18.116Z,-157.70
2022-07-27T09:08:18.098Z,-157.70
2022-07-27T09:09:18.134Z,-158.91
2022-07-27T09:10:18.124Z,-158.91
2022-07-27T09:11:18.059Z,-158.91
2022-07-27T09:12:18.041Z,-158.91
2022-07-27T09:13:18.034Z,-160.13
2022-07-27T09:14:18.010Z,-160.13
2022-07-27T09:15:18.054Z,-160.13
2022-07-27T09:16:19.973Z,-160.13
2022-07-27T09:18:18.989Z,-160.13
2022-07-27T09:19:17.953Z,-160.13
2022-07-27T09:20:18.868Z,-160.13
2022-07-27T09:21:17.950Z,-160.13
2022-07-27T09:22:17.917Z,-161.35
2022-07-27T09:23:17.895Z,-161.35
2022-07-27T09:24:44.304Z,-161.35
2022-07-27T09:25:38.354Z,-161.35
2022-07-27T09:26:37.275Z,-160.13
2022-07-27T09:27:18.843Z,-160.13
2022-07-27T09:28:17.830Z,-160.13
2022-07-27T09:29:17.990Z,-158.91
2022-07-27T09:30:17.801Z,-158.91
2022-07-27T09:31:17.856Z,-158.91
2022-07-27T09:32:17.904Z,-157.70
2022-07-27T09:33:17.760Z,-157.70
2022-07-27T09:34:17.799Z,-157.70
2022-07-27T09:35:17.740Z,-156.48
2022-07-27T09:36:17.720Z,-157.70
2022-07-27T09:37:17.700Z,-157.70
2022-07-27T09:38:17.687Z,-158.91
2022-07-27T09:39:17.947Z,-158.91
2022-07-27T09:40:22.613Z,-160.13
2022-07-27T09:41:18.653Z,-160.13
2022-07-27T09:43:02.793Z,-160.13
2022-07-27T09:44:19.751Z,-160.13
2022-07-27T09:44:34.749Z,-158.91
2022-07-27T09:45:21.634Z,-157.70
2022-07-27T09:46:20.622Z,-156.48
2022-07-27T09:47:17.565Z,-157.70
2022-07-27T09:48:17.555Z,-157.70
2022-07-27T09:49:17.600Z,-157.70
2022-07-27T09:50:17.679Z,-158.91
2022-07-27T09:51:58.268Z,-158.91
2022-07-27T09:52:18.517Z,-158.91
2022-07-27T09:53:41.749Z,-160.13
2022-07-27T09:54:18.469Z,-160.13
2022-07-27T09:55:17.494Z,-160.13
2022-07-27T09:56:17.447Z,-160.13
2022-07-27T09:57:17.431Z,-160.13
2022-07-27T09:58:17.419Z,-160.13
2022-07-27T09:59:17.441Z,-160.13
2022-07-27T10:00:17.581Z,-160.13
2022-07-27T10:01:17.469Z,-158.91
2022-07-27T10:02:17.467Z,-158.91
2022-07-27T10:03:17.352Z,-157.70
2022-07-27T10:04:17.694Z,-157.70
2022-07-27T10:05:20.366Z,-157.70
2022-07-27T10:06:20.324Z,-157.70
2022-07-27T10:07:17.294Z,-157.70
2022-07-27T10:08:17.285Z,-157.70
2022-07-27T10:09:17.318Z,-158.91
2022-07-27T10:10:17.277Z,-158.91
2022-07-27T10:11:17.305Z,-158.91
2022-07-27T10:12:17.236Z,-158.91
2022-07-27T10:13:17.225Z,-158.91
2022-07-27T10:14:17.205Z,-158.91
2022-07-27T10:15:17.199Z,-157.70
2022-07-27T10:16:17.291Z,-157.70
2022-07-27T10:17:17.219Z,-157.70
2022-07-27T10:18:17.166Z,-157.70
2022-07-27T10:19:17.140Z,-157.70
2022-07-27T10:20:17.120Z,-156.48
2022-07-27T10:21:17.124Z,-156.48
2022-07-27T10:22:17.100Z,-157.70
2022-07-27T10:23:17.110Z,-157.70
2022-07-27T10:24:17.069Z,-157.70
2022-07-27T10:25:20.064Z,-158.91
2022-07-27T10:26:20.052Z,-157.70
2022-07-27T10:27:17.076Z,-157.70
2022-07-27T10:28:17.019Z,-157.70
2022-07-27T10:29:16.997Z,-156.48
2022-07-27T10:30:16.985Z,-157.70
2022-07-27T10:31:18.075Z,-156.48
2022-07-27T10:32:16.966Z,-156.48
2022-07-27T10:33:16.997Z,-156.48
2022-07-27T10:34:16.940Z,-157.70
2022-07-27T10:35:16.915Z,-157.70
2022-07-27T10:36:17.221Z,-158.91
2022-07-27T10:37:16.895Z,-160.13
2022-07-27T10:38:16.878Z,-160.13
2022-07-27T10:39:16.914Z,-160.13
2022-07-27T10:40:16.859Z,-160.13
2022-07-27T10:41:16.881Z,-160.13
2022-07-27T10:42:16.821Z,-160.13
2022-07-27T10:43:16.811Z,-161.35
2022-07-27T10:44:17.818Z,-160.13
2022-07-27T10:45:19.843Z,-160.13
2022-07-27T10:46:19.823Z,-160.13
2022-07-27T10:47:16.753Z,-161.35
2022-07-27T10:48:16.745Z,-160.13
2022-07-27T10:49:16.755Z,-160.13
2022-07-27T10:50:16.723Z,-160.13
2022-07-27T10:51:17.164Z,-160.13
2022-07-27T10:52:16.705Z,-160.13
2022-07-27T10:53:16.676Z,-160.13
2022-07-27T10:54:16.665Z,-160.13
2022-07-27T10:55:16.646Z,-160.13
2022-07-27T10:56:16.648Z,-160.13
2022-07-27T10:57:16.647Z,-160.13
2022-07-27T10:58:16.623Z,-160.13
2022-07-27T10:59:16.608Z,-160.13
2022-07-27T11:00:19.909Z,-160.13
2022-07-27T11:01:16.659Z,-160.13
2022-07-27T11:02:16.588Z,-160.13
2022-07-27T11:03:16.539Z,-161.35
2022-07-27T11:04:17.048Z,-160.13
2022-07-27T11:05:58.649Z,-160.13
2022-07-27T11:07:04.671Z,-158.91
2022-07-27T11:07:30.074Z,-158.91
2022-07-27T11:08:36.520Z,-157.70
2022-07-27T11:10:02.869Z,-157.70
2022-07-27T11:10:17.452Z,-157.70
2022-07-27T11:11:16.433Z,-157.70
2022-07-27T11:12:16.422Z,-157.70
2022-07-27T11:13:16.474Z,-157.70
2022-07-27T11:14:18.970Z,-157.70
2022-07-27T11:15:16.412Z,-158.91
2022-07-27T11:16:23.844Z,-160.13
2022-07-27T11:17:48.702Z,-160.13
2022-07-27T11:18:17.438Z,-160.13
2022-07-27T11:19:16.960Z,-160.13
2022-07-27T11:20:16.323Z,-158.91
2022-07-27T11:21:20.384Z,-158.91
2022-07-27T11:22:28.708Z,-158.91
2022-07-27T11:24:17.430Z,-160.13
2022-07-27T11:25:19.301Z,-160.13
2022-07-27T11:26:19.250Z,-160.13
2022-07-27T11:27:18.395Z,-160.13
2022-07-27T11:28:16.214Z,-160.13
2022-07-27T11:29:16.454Z,-160.13
2022-07-27T11:30:16.192Z,-160.13
2022-07-27T11:31:32.470Z,-160.13
2022-07-27T11:32:17.163Z,-160.13
2022-07-27T11:33:16.143Z,-161.35
2022-07-27T11:34:16.485Z,-161.35
2022-07-27T11:35:19.744Z,-161.35
2022-07-27T11:36:16.135Z,-161.35
2022-07-27T11:37:16.093Z,-160.13
2022-07-27T11:38:16.078Z,-160.13
2022-07-27T11:39:19.684Z,-158.91
2022-07-27T11:40:53.984Z,-158.91
2022-07-27T11:41:28.310Z,-157.70
2022-07-27T11:42:20.880Z,-158.91
2022-07-27T11:43:16.016Z,-158.91
2022-07-27T11:44:16.349Z,-158.91
2022-07-27T11:45:18.979Z,-160.13
2022-07-27T11:46:19.094Z,-160.13
2022-07-27T11:47:15.949Z,-160.13
2022-07-27T11:48:15.939Z,-158.91
2022-07-27T11:49:15.953Z,-158.91
2022-07-27T11:50:15.937Z,-160.13
2022-07-27T11:51:15.901Z,-160.13
2022-07-27T11:52:15.943Z,-160.13
2022-07-27T11:53:15.883Z,-158.91
2022-07-27T11:54:15.863Z,-158.91
2022-07-27T11:55:15.843Z,-160.13
2022-07-27T11:56:15.835Z,-160.13
2022-07-27T11:57:15.835Z,-160.13
2022-07-27T11:58:15.835Z,-160.13
2022-07-27T11:59:16.087Z,-160.13
2022-07-27T12:00:15.794Z,-160.13
2022-07-27T12:01:15.777Z,-160.13
2022-07-27T12:02:15.806Z,-160.13
2022-07-27T12:03:15.765Z,-160.13
2022-07-27T12:04:15.928Z,-160.13
2022-07-27T12:05:18.747Z,-160.13
2022-07-27T12:06:18.718Z,-160.13
2022-07-27T12:07:15.912Z,-160.13
2022-07-27T12:08:15.681Z,-161.35